createdAt,value
2022-08-20T00:06:37.542Z,132.23
2022-08-20T00:16:41.675Z,110.27
2022-08-20T00:26:52.374Z,180.00
2022-08-20T00:36:56.530Z,156.50
2022-08-20T00:47:02.449Z,147.67
2022-08-20T00:57:10.778Z,147.17
2022-08-20T01:07:16.130Z,111.20
2022-08-20T01:17:25.375Z,132.77
2022-08-20T01:27:32.326Z,143.57
2022-08-20T01:37:38.752Z,140.43
2022-08-20T01:47:43.852Z,113.03
2022-08-20T01:57:49.672Z,115.33
2022-08-20T02:07:55.757Z,111.30
2022-08-20T02:17:59.820Z,113.50
2022-08-20T02:28:11.015Z,108.37
2022-08-20T02:38:15.811Z,105.87
2022-08-20T02:48:23.458Z,105.33
2022-08-20T02:58:28.003Z,107.10
2022-08-20T03:08:33.874Z,128.90
2022-08-20T03:18:41.837Z,132.70
2022-08-20T03:28:47.246Z,132.90
2022-08-20T03:38:53.222Z,110.70
2022-08-20T03:49:00.548Z,108.20
2022-08-20T03:59:05.817Z,137.40
2022-08-20T04:09:11.765Z,109.60
2022-08-20T04:19:16.129Z,163.50
2022-08-20T04:29:21.447Z,103.97
2022-08-20T04:39:25.309Z,150.10
2022-08-20T04:49:30.413Z,171.37
2022-08-20T04:59:34.229Z,110.67
2022-08-20T05:09:44.163Z,144.07
2022-08-20T05:19:48.320Z,136.43
2022-08-20T05:29:53.639Z,126.17
2022-08-20T05:39:58.208Z,138.70
2022-08-20T05:50:05.769Z,150.63
2022-08-20T06:00:13.438Z,108.37
2022-08-20T06:10:19.973Z,113.13
2022-08-20T06:20:24.200Z,119.53
2022-08-20T06:30:29.710Z,113.97
2022-08-20T06:40:34.462Z,142.50
2022-08-20T06:50:47.762Z,119.23
2022-08-20T07:00:52.129Z,147.40
2022-08-20T07:10:57.686Z,137.90
2022-08-20T07:21:01.748Z,121.70
2022-08-20T07:31:24.625Z,128.97
2022-08-20T07:41:28.501Z,188.73
2022-08-20T07:51:33.902Z,174.23
2022-08-20T08:01:38.394Z,156.40
2022-08-20T08:11:50.186Z,170.05
2022-08-20T08:21:54.170Z,173.73
2022-08-20T08:32:02.647Z,179.90
2022-08-20T08:42:26.209Z,172.27
2022-08-20T08:52:35.909Z,172.48
2022-08-20T09:02:42.621Z,174.38
2022-08-20T09:12:47.960Z,138.23
2022-08-20T09:22:51.970Z,165.02
2022-08-20T09:33:00.272Z,158.63
2022-08-20T09:43:06.550Z,149.35
2022-08-20T09:53:12.322Z,175.30
2022-08-20T10:03:16.700Z,173.10
2022-08-20T10:13:21.851Z,188.18
2022-08-20T10:23:25.718Z,235.55
2022-08-20T10:33:30.862Z,218.27
2022-08-20T10:43:35.163Z,194.57
2022-08-20T10:53:40.469Z,213.98
2022-08-20T11:03:44.286Z,171.75
2022-08-20T11:13:49.545Z,200.38
2022-08-20T11:23:54.222Z,213.38
2022-08-20T11:33:59.384Z,199.25
2022-08-20T11:44:21.183Z,202.98
2022-08-20T11:54:29.019Z,158.45
2022-08-20T12:04:33.891Z,163.65
2022-08-20T12:14:40.666Z,143.57
2022-08-20T12:24:44.642Z,140.63
2022-08-20T12:34:51.413Z,136.90
2022-08-20T12:44:55.137Z,137.18
2022-08-20T12:55:01.144Z,151.90
2022-08-20T13:05:05.820Z,162.23
2022-08-20T13:15:12.708Z,164.25
2022-08-20T13:25:16.682Z,135.30
2022-08-20T13:35:22.140Z,134.33
2022-08-20T13:45:25.860Z,132.27
2022-08-20T13:55:31.097Z,126.33
2022-08-20T14:05:38.131Z,107.87
2022-08-20T14:15:43.076Z,115.40
2022-08-20T14:25:49.653Z,139.17
2022-08-20T14:35:55.867Z,110.67
2022-08-20T14:45:59.693Z,110.27
2022-08-20T14:56:05.457Z,132.10
2022-08-20T15:06:21.216Z,116.57
2022-08-20T15:16:28.397Z,115.23
2022-08-20T15:26:32.959Z,138.60
2022-08-20T15:36:38.113Z,117.93
2022-08-20T15:46:45.240Z,118.27
2022-08-20T15:57:02.656Z,114.13
2022-08-20T16:07:25.125Z,113.27
2022-08-20T16:17:36.045Z,120.10
2022-08-20T16:27:51.096Z,114.17
2022-08-20T16:38:08.204Z,122.87
2022-08-20T16:48:12.640Z,117.90
2022-08-20T16:58:17.934Z,136.87
2022-08-20T17:08:26.007Z,145.40
2022-08-20T17:18:36.844Z,153.63
2022-08-20T17:28:50.476Z,158.77
2022-08-20T17:38:58.190Z,140.60
2022-08-20T17:49:08.319Z,135.10
2022-08-20T17:59:33.523Z,144.97
2022-08-20T18:09:54.279Z,114.73
2022-08-20T18:20:41.557Z,136.13
2022-08-20T18:30:51.857Z,110.97
2022-08-20T18:41:08.995Z,109.43
2022-08-20T18:51:14.031Z,110.40
2022-08-20T19:01:19.445Z,115.50
2022-08-20T19:12:25.747Z,119.73
2022-08-20T19:22:31.466Z,115.73
2022-08-20T19:32:35.253Z,110.70
2022-08-20T19:42:44.534Z,109.53
2022-08-20T19:52:58.498Z,117.43
2022-08-20T20:03:11.926Z,113.97
2022-08-20T20:13:21.327Z,113.73
2022-08-20T20:23:38.597Z,120.93
2022-08-20T20:33:56.190Z,115.60
2022-08-20T20:44:04.872Z,110.67
2022-08-20T20:54:28.298Z,113.13
2022-08-20T21:04:34.161Z,107.13
2022-08-20T21:14:39.211Z,107.43
2022-08-20T21:24:45.803Z,114.73
2022-08-20T21:34:50.165Z,107.50
2022-08-20T21:44:55.487Z,104.07
2022-08-20T21:54:59.252Z,105.30
2022-08-20T22:05:05.366Z,102.70
2022-08-20T22:15:10.189Z,111.07
2022-08-20T22:25:16.559Z,109.10
2022-08-20T22:35:20.940Z,103.47
2022-08-20T22:45:26.249Z,107.10
2022-08-20T22:55:30.021Z,105.20
2022-08-20T23:05:38.035Z,112.83
2022-08-20T23:15:45.341Z,109.47
2022-08-20T23:25:51.210Z,102.57
2022-08-20T23:35:55.082Z,110.17
2022-08-20T23:46:04.746Z,107.73
2022-08-20T23:56:08.915Z,107.87
